Time;durP1;ratioP1;P1;durP2;ratioP2;P2;SDS_P1;SDS_P2;PMS_P1;PMS_P2;Temp;Humidity;BMP_temperature;BMP_pressure;BME280_temperature;BME280_humidity;BME280_pressure;Samples;Min_cycle;Max_cycle;Signal;HPM_P1;HPM_P2
2024/02/14 00:01:04;;;;;;;;;;;;;;;2.21;100.00;96917.19;5105748;28;19951;-77
2024/02/14 00:03:30;;;;;;;;;;;;;;;2.21;100.00;96916.38;5106121;28;20237;-77
2024/02/14 00:05:57;;;;;;;;;;;;;;;2.19;100.00;96913.13;5088516;28;20217;-76
2024/02/14 00:08:23;;;;;;;;;;;;;;;2.16;100.00;96919.44;5105820;28;19952;-79
2024/02/14 00:10:48;;;;;;;;;;;;;;;2.16;100.00;96916.03;5105518;28;19933;-79
2024/02/14 00:13:14;;;;;;;;;;;;;;;2.16;100.00;96922.03;5105754;28;19944;-76
2024/02/14 00:15:41;;;;;;;;;;;;;;;2.16;100.00;96924.63;5105407;28;19928;-70
2024/02/14 00:18:07;;;;;;;;;;;;;;;2.17;100.00;96928.81;5106221;28;19957;-72
2024/02/14 00:20:33;;;;;;;;;;;;;;;2.19;100.00;96926.88;5105935;28;20226;-72
2024/02/14 00:23:01;;;;;;;;;;;;;;;2.21;100.00;96919.78;5105377;28;19931;-72
2024/02/14 00:25:27;;;;;;;;;;;;;;;2.25;100.00;96917.69;5105692;28;19958;-72
2024/02/14 00:27:55;;;;;;;;;;;;;;;2.27;100.00;96912.34;5105184;28;19935;-72
2024/02/14 00:30:23;;;;;;;;;;;;;;;2.31;100.00;96914.50;5105169;28;19995;-72
2024/02/14 00:33:08;;;;;;;;;;;;;;;2.35;100.00;96914.97;5105038;28;19939;-70
2024/02/14 00:35:34;;;;;;;;;;;;;;;2.39;100.00;96921.47;5105143;28;19935;-72
2024/02/14 00:38:00;;;;;;;;;;;;;;;2.40;100.00;96917.94;5105036;28;19939;-72
2024/02/14 00:40:26;;;;;;;;;;;;;;;2.45;100.00;96913.09;5105015;28;19936;-72
2024/02/14 00:42:51;;;;;;;;;;;;;;;2.48;100.00;96923.16;5104980;28;19999;-72
2024/02/14 00:45:17;;;;;;;;;;;;;;;2.53;100.00;96927.88;5104898;28;20013;-71
2024/02/14 00:47:43;;;;;;;;;;;;;;;2.54;100.00;96921.69;5104824;28;19935;-72
2024/02/14 00:50:09;;;;;;;;;;;;;;;2.55;100.00;96918.16;5104888;28;19938;-75
2024/02/14 00:52:35;;;;;;;;;;;;;;;2.57;100.00;96929.97;5104855;28;19970;-79
2024/02/14 00:55:03;;;;;;;;;;;;;;;2.62;100.00;96929.50;5104708;28;19936;-68
2024/02/14 00:57:31;;;;;;;;;;;;;;;2.63;100.00;96925.97;5104508;28;19958;-70
2024/02/14 00:59:57;;;;;;;;;;;;;;;2.65;100.00;96926.63;5104656;28;20209;-69
2024/02/14 01:02:23;;;;;;;;;;;;;;;2.67;100.00;96929.88;5104677;28;20011;-69
2024/02/14 01:04:49;;;;;;;;;;;;;;;2.70;100.00;96936.50;5104542;28;19945;-69
2024/02/14 01:07:15;;;;;;;;;;;;;;;2.73;100.00;96929.25;5104619;28;19997;-69
2024/02/14 01:09:41;;;;;;;;;;;;;;;2.76;100.00;96928.13;5104480;28;19953;-69
2024/02/14 01:12:07;;;;;;;;;;;;;;;2.78;100.00;96929.56;5104512;28;19956;-70
2024/02/14 01:14:33;;;;;;;;;;;;;;;2.81;100.00;96920.69;5103613;28;20208;-71
2024/02/14 01:16:58;;;;;;;;;;;;;;;2.78;100.00;96919.22;5104451;28;19935;-69
2024/02/14 01:19:28;;;;;;;;;;;;;;;2.79;100.00;96932.97;5104499;28;19932;-70
2024/02/14 01:21:54;;;;;;;;;;;;;;;2.80;100.00;96913.88;5104439;28;20244;-70
2024/02/14 01:24:22;;;;;;;;;;;;;;;2.79;100.00;96918.25;5104328;28;19956;-70
2024/02/14 01:26:49;;;;;;;;;;;;;;;2.81;100.00;96920.69;5103574;28;19938;-70
2024/02/14 01:29:16;;;;;;;;;;;;;;;2.85;100.00;96916.81;5104381;28;19940;-73
2024/02/14 01:31:42;;;;;;;;;;;;;;;2.87;100.00;96914.06;5104244;28;19937;-76
2024/02/14 01:34:08;;;;;;;;;;;;;;;2.91;100.00;96913.59;5104284;28;20242;-76
2024/02/14 01:36:34;;;;;;;;;;;;;;;2.94;100.00;96900.34;5104260;28;19936;-76
2024/02/14 01:39:00;;;;;;;;;;;;;;;2.96;100.00;96913.09;5104193;28;19937;-76
2024/02/14 01:41:26;;;;;;;;;;;;;;;3.00;100.00;96915.25;5104265;28;19938;-76
2024/02/14 01:43:51;;;;;;;;;;;;;;;3.02;100.00;96912.47;5104839;28;20198;-76
2024/02/14 01:46:18;;;;;;;;;;;;;;;3.04;100.00;96918.31;5104173;28;20014;-75
2024/02/14 01:48:52;;;;;;;;;;;;;;;3.05;100.00;96912.97;5104976;28;19955;-65
2024/02/14 01:51:20;;;;;;;;;;;;;;;3.06;100.00;96903.41;5104143;28;19935;-65
2024/02/14 01:53:46;;;;;;;;;;;;;;;3.10;100.00;96911.69;5104617;28;19942;-65
2024/02/14 01:56:12;;;;;;;;;;;;;;;3.10;100.00;96916.88;5104571;28;19936;-65
2024/02/14 01:58:38;;;;;;;;;;;;;;;3.12;100.00;96904.56;5103867;28;20314;-65
2024/02/14 02:01:04;;;;;;;;;;;;;;;3.14;100.00;96907.81;5104556;28;19948;-64
2024/02/14 02:03:33;;;;;;;;;;;;;;;3.15;100.00;96904.22;5103979;28;19990;-65
2024/02/14 02:05:59;;;;;;;;;;;;;;;3.17;100.00;96897.94;5103920;28;19946;-68
2024/02/14 02:08:25;;;;;;;;;;;;;;;3.17;100.00;96899.69;5085994;28;20136;-77
2024/02/14 02:10:51;;;;;;;;;;;;;;;3.12;100.00;96894.19;5103893;28;19931;-77
2024/02/14 02:13:39;;;;;;;;;;;;;;;3.12;100.00;96901.97;5103841;28;19937;-77
2024/02/14 02:16:25;;;;;;;;;;;;;;;3.10;100.00;96885.78;5104640;28;19976;-77
2024/02/14 02:19:10;;;;;;;;;;;;;;;3.08;100.00;96885.94;5103840;28;19942;-77
2024/02/14 02:21:56;;;;;;;;;;;;;;;3.07;100.00;96883.50;5103806;28;19937;-77
2024/02/14 02:24:22;;;;;;;;;;;;;;;3.05;100.00;96883.66;5104426;28;19957;-68
2024/02/14 02:26:48;;;;;;;;;;;;;;;3.07;100.00;96871.38;5107690;28;19986;-71
2024/02/14 02:29:33;;;;;;;;;;;;;;;3.10;100.00;96872.81;5092752;28;19946;-73
2024/02/14 02:31:59;;;;;;;;;;;;;;;3.09;100.00;96866.84;5107581;28;19995;-71
2024/02/14 02:34:26;;;;;;;;;;;;;;;3.10;100.00;96863.25;5108065;28;19959;-71
2024/02/14 02:36:51;;;;;;;;;;;;;;;3.10;100.00;96859.88;5107950;28;19934;-70
2024/02/14 02:39:36;;;;;;;;;;;;;;;3.08;100.00;96854.84;5107391;28;19937;-70
2024/02/14 02:42:22;;;;;;;;;;;;;;;3.11;100.00;96844.16;5107547;28;20118;-74
2024/02/14 02:45:07;;;;;;;;;;;;;;;3.11;100.00;96845.91;5107766;28;19960;-75
2024/02/14 02:47:54;;;;;;;;;;;;;;;3.11;100.00;96849.34;5108017;28;19939;-75
2024/02/14 02:50:40;;;;;;;;;;;;;;;3.10;100.00;96841.72;5107891;28;19937;-75
2024/02/14 02:53:26;;;;;;;;;;;;;;;3.08;100.00;96839.28;5107886;28;20119;-75
2024/02/14 02:56:13;;;;;;;;;;;;;;;3.01;100.00;96844.31;5107018;28;19939;-74
2024/02/14 02:58:38;;;;;;;;;;;;;;;2.95;100.00;96839.75;5106652;28;19964;-75
2024/02/14 03:01:07;;;;;;;;;;;;;;;2.92;100.00;96847.03;5106814;28;20232;-69
2024/02/14 03:03:50;;;;;;;;;;;;;;;2.87;100.00;96836.34;5088791;28;20141;-65
2024/02/14 03:06:36;;;;;;;;;;;;;;;2.85;100.00;96841.69;5089346;28;19939;-64
2024/02/14 03:09:18;;;;;;;;;;;;;;;2.87;100.00;96844.94;5106608;28;20137;-65
2024/02/14 03:12:04;;;;;;;;;;;;;;;2.85;100.00;96847.66;5088494;28;19937;-65
2024/02/14 03:14:50;;;;;;;;;;;;;;;2.87;100.00;96851.91;5107141;28;19934;-65
2024/02/14 03:17:32;;;;;;;;;;;;;;;2.86;100.00;96858.88;5105990;28;20209;-75
2024/02/14 03:19:58;;;;;;;;;;;;;;;2.90;100.00;96865.34;5106404;28;19939;-74
2024/02/14 03:22:24;;;;;;;;;;;;;;;2.93;100.00;96864.22;5106369;28;20219;-74
2024/02/14 03:24:50;;;;;;;;;;;;;;;2.92;100.00;96865.16;5106558;28;19957;-74
2024/02/14 03:27:17;;;;;;;;;;;;;;;2.92;100.00;96871.19;5106287;28;19966;-74
2024/02/14 03:29:43;;;;;;;;;;;;;;;2.91;100.00;96864.38;5106190;28;19931;-74
2024/02/14 03:32:09;;;;;;;;;;;;;;;2.89;100.00;96874.06;5106649;28;19942;-74
2024/02/14 03:34:35;;;;;;;;;;;;;;;2.88;100.00;96872.47;5106071;28;19925;-75
2024/02/14 03:37:02;;;;;;;;;;;;;;;2.90;100.00;96869.69;5105107;28;19931;-65
2024/02/14 03:39:28;;;;;;;;;;;;;;;2.89;100.00;96873.28;5106008;28;19960;-74
2024/02/14 03:41:55;;;;;;;;;;;;;;;2.89;100.00;96881.84;5105982;28;19938;-73
2024/02/14 03:44:22;;;;;;;;;;;;;;;2.88;100.00;96880.25;5105843;28;19934;-73
2024/02/14 03:46:49;;;;;;;;;;;;;;;2.84;100.00;96884.13;5106091;28;19940;-72
2024/02/14 03:49:14;;;;;;;;;;;;;;;2.83;100.00;96895.44;5105881;28;20264;-75
2024/02/14 03:51:40;;;;;;;;;;;;;;;2.80;100.00;96899.16;5106258;28;19933;-74
2024/02/14 03:54:06;;;;;;;;;;;;;;;2.79;100.00;96894.13;5106498;28;19943;-74
2024/02/14 03:56:32;;;;;;;;;;;;;;;2.79;100.00;96894.13;5105588;28;20225;-65
2024/02/14 03:59:02;;;;;;;;;;;;;;;2.79;100.00;96894.13;5105596;28;19939;-74
2024/02/14 04:01:29;;;;;;;;;;;;;;;2.80;100.00;96886.19;5106342;28;20119;-74
2024/02/14 04:03:55;;;;;;;;;;;;;;;2.78;100.00;96882.94;5106286;28;19935;-73
2024/02/14 04:06:20;;;;;;;;;;;;;;;2.80;100.00;96896.56;5105391;28;20237;-73
2024/02/14 04:08:46;;;;;;;;;;;;;;;2.79;100.00;96881.16;5105363;28;19952;-73
2024/02/14 04:11:13;;;;;;;;;;;;;;;2.78;100.00;96879.56;5106169;28;20146;-73
2024/02/14 04:13:39;;;;;;;;;;;;;;;2.74;100.00;96881.66;5105299;28;19933;-65
2024/02/14 04:16:05;;;;;;;;;;;;;;;2.73;100.00;96881.78;5105316;28;19932;-74
2024/02/14 04:18:38;;;;;;;;;;;;;;;2.71;100.00;96881.16;5105816;28;19935;-75
2024/02/14 04:21:04;;;;;;;;;;;;;;;2.70;100.00;96889.91;5105203;28;19935;-74
2024/02/14 04:23:30;;;;;;;;;;;;;;;2.70;100.00;96897.66;5105184;28;19933;-75
2024/02/14 04:25:57;;;;;;;;;;;;;;;2.68;100.00;96897.00;5104265;28;19950;-75
2024/02/14 04:28:23;;;;;;;;;;;;;;;2.65;100.00;96895.56;5105052;28;19935;-74
2024/02/14 04:30:49;;;;;;;;;;;;;;;2.64;100.00;96902.47;5105078;28;19938;-74
2024/02/14 04:33:22;;;;;;;;;;;;;;;2.64;100.00;96905.06;5105897;28;19938;-72
2024/02/14 04:35:48;;;;;;;;;;;;;;;2.62;100.00;96893.25;5104941;28;20119;-70
2024/02/14 04:38:14;;;;;;;;;;;;;;;2.60;100.00;96902.97;5104897;28;19932;-70
2024/02/14 04:40:40;;;;;;;;;;;;;;;2.59;100.00;96901.34;5104813;28;19985;-71
2024/02/14 04:43:06;;;;;;;;;;;;;;;2.58;100.00;96908.31;5086795;28;19969;-70
2024/02/14 04:45:31;;;;;;;;;;;;;;;2.57;100.00;96904.09;5104728;28;19994;-71
2024/02/14 04:48:03;;;;;;;;;;;;;;;2.55;100.00;96907.81;5105381;28;19935;-71
2024/02/14 04:50:30;;;;;;;;;;;;;;;2.55;100.00;96912.97;5104657;28;19941;-73
2024/02/14 04:52:56;;;;;;;;;;;;;;;2.55;100.00;96918.97;5105207;28;19938;-66
2024/02/14 04:55:22;;;;;;;;;;;;;;;2.55;100.00;96924.16;5105365;28;19941;-66
2024/02/14 04:57:48;;;;;;;;;;;;;;;2.55;100.00;96916.38;5104652;28;19963;-66
2024/02/14 05:00:14;;;;;;;;;;;;;;;2.54;100.00;96907.00;5105342;28;19936;-66
2024/02/14 05:02:41;;;;;;;;;;;;;;;2.55;100.00;96918.97;5105026;28;19939;-66
2024/02/14 05:05:08;;;;;;;;;;;;;;;2.56;100.00;96914.59;5105145;28;19955;-65
2024/02/14 05:07:37;;;;;;;;;;;;;;;2.55;100.00;96918.97;5105085;28;20009;-66
2024/02/14 05:10:03;;;;;;;;;;;;;;;2.54;100.00;96919.13;5104489;28;20220;-71
2024/02/14 05:12:31;;;;;;;;;;;;;;;2.54;100.00;96919.94;5104370;28;19933;-74
2024/02/14 05:14:57;;;;;;;;;;;;;;;2.56;100.00;96920.59;5104325;28;20161;-75
2024/02/14 05:17:23;;;;;;;;;;;;;;;2.59;100.00;96916.88;5103016;28;19940;-74
2024/02/14 05:19:49;;;;;;;;;;;;;;;2.61;100.00;96912.38;5104240;28;19932;-74
2024/02/14 05:22:15;;;;;;;;;;;;;;;2.64;100.00;96918.03;5105038;28;19941;-74
2024/02/14 05:24:40;;;;;;;;;;;;;;;2.68;100.00;96917.72;5104148;28;19935;-75
2024/02/14 05:27:06;;;;;;;;;;;;;;;2.68;100.00;96913.34;5104696;28;20005;-70
2024/02/14 05:29:33;;;;;;;;;;;;;;;2.71;100.00;96910.47;5104957;28;19975;-73
2024/02/14 05:31:58;;;;;;;;;;;;;;;2.74;100.00;96914.50;5103404;28;20144;-73
2024/02/14 05:34:24;;;;;;;;;;;;;;;2.75;100.00;96905.75;5103143;28;19942;-74
2024/02/14 05:36:52;;;;;;;;;;;;;;;2.77;100.00;96899.47;5104030;28;19943;-74
2024/02/14 05:39:18;;;;;;;;;;;;;;;2.79;100.00;96901.88;5104850;28;19935;-74
2024/02/14 05:41:44;;;;;;;;;;;;;;;2.81;100.00;96907.72;5104484;28;19937;-74
2024/02/14 05:44:10;;;;;;;;;;;;;;;2.82;100.00;96899.00;5104540;28;19985;-73
2024/02/14 05:46:36;;;;;;;;;;;;;;;2.83;100.00;96905.78;5103915;28;20102;-74
2024/02/14 05:49:02;;;;;;;;;;;;;;;2.83;100.00;96904.03;5086142;28;19936;-77
2024/02/14 05:51:28;;;;;;;;;;;;;;;2.84;100.00;96904.84;5103957;28;19934;-78
2024/02/14 05:53:54;;;;;;;;;;;;;;;2.84;100.00;96908.22;5086632;28;19948;-78
2024/02/14 05:56:20;;;;;;;;;;;;;;;2.84;100.00;96905.63;5103891;28;20100;-79
2024/02/14 05:58:46;;;;;;;;;;;;;;;2.87;100.00;96903.69;5103692;28;19963;-78
2024/02/14 06:01:12;;;;;;;;;;;;;;;2.90;100.00;96893.00;5107571;28;19945;-78
2024/02/14 06:03:38;;;;;;;;;;;;;;;2.89;100.00;96894.78;5107902;28;19937;-75
2024/02/14 06:06:04;;;;;;;;;;;;;;;2.92;100.00;96917.81;5107829;28;19945;-76
2024/02/14 06:08:29;;;;;;;;;;;;;;;2.95;100.00;96914.91;5090331;28;19961;-68
2024/02/14 06:10:55;;;;;;;;;;;;;;;2.98;100.00;96917.19;5107782;28;20056;-68
2024/02/14 06:13:21;;;;;;;;;;;;;;;3.02;100.00;96915.91;5107694;28;19933;-68
2024/02/14 06:15:47;;;;;;;;;;;;;;;3.03;100.00;96908.94;5107656;28;19931;-68
2024/02/14 06:18:13;;;;;;;;;;;;;;;3.07;100.00;96909.41;5108417;28;19936;-69
2024/02/14 06:20:39;;;;;;;;;;;;;;;3.09;100.00;96905.69;5107539;28;19932;-68
2024/02/14 06:23:05;;;;;;;;;;;;;;;3.12;100.00;96910.56;5107586;28;19943;-73
2024/02/14 06:25:31;;;;;;;;;;;;;;;3.15;100.00;96919.78;5107413;28;19949;-74
2024/02/14 06:28:00;;;;;;;;;;;;;;;3.17;100.00;96920.44;5108204;28;19962;-75
2024/02/14 06:30:26;;;;;;;;;;;;;;;3.19;100.00;96921.09;5107431;28;20120;-74
2024/02/14 06:32:52;;;;;;;;;;;;;;;3.22;100.00;96918.19;5107343;28;19942;-74
2024/02/14 06:35:18;;;;;;;;;;;;;;;3.23;100.00;96936.19;5108083;28;19936;-75
2024/02/14 06:37:44;;;;;;;;;;;;;;;3.27;100.00;96936.66;5107213;28;19934;-74
2024/02/14 06:40:11;;;;;;;;;;;;;;;3.29;100.00;96924.34;5107221;28;20128;-73
2024/02/14 06:42:37;;;;;;;;;;;;;;;3.32;100.00;96929.22;5107246;28;19997;-69
2024/02/14 06:45:03;;;;;;;;;;;;;;;3.34;100.00;96924.69;5107010;28;19937;-68
2024/02/14 06:47:31;;;;;;;;;;;;;;;3.35;100.00;96915.13;5107614;28;19935;-68
2024/02/14 06:49:56;;;;;;;;;;;;;;;3.38;100.00;96919.97;5106998;28;20117;-68
2024/02/14 06:52:22;;;;;;;;;;;;;;;3.39;100.00;96919.03;5106978;28;19937;-68
2024/02/14 06:54:48;;;;;;;;;;;;;;;3.40;100.00;96924.06;5106886;28;19934;-68
2024/02/14 06:57:14;;;;;;;;;;;;;;;3.42;100.00;96914.34;5106701;28;20258;-68
2024/02/14 06:59:40;;;;;;;;;;;;;;;3.44;100.00;96914.16;5106804;28;19939;-73
2024/02/14 07:02:06;;;;;;;;;;;;;;;3.46;100.00;96925.16;5107577;28;19938;-67
2024/02/14 07:04:32;;;;;;;;;;;;;;;3.50;100.00;96923.09;5107543;28;19943;-68
2024/02/14 07:06:58;;;;;;;;;;;;;;;3.54;100.00;96926.97;5106550;28;19957;-68
2024/02/14 07:09:25;;;;;;;;;;;;;;;3.56;100.00;96920.66;5107111;28;19953;-68
2024/02/14 07:11:53;;;;;;;;;;;;;;;3.60;100.00;96924.53;5105318;28;19935;-68
2024/02/14 07:14:19;;;;;;;;;;;;;;;3.67;100.00;96932.47;5107050;28;20232;-68
2024/02/14 07:16:45;;;;;;;;;;;;;;;3.73;100.00;96939.59;5106474;28;19935;-74
2024/02/14 07:19:11;;;;;;;;;;;;;;;3.79;100.00;96936.38;5106462;28;19972;-72
2024/02/14 07:21:37;;;;;;;;;;;;;;;3.89;100.00;96936.22;5106448;28;19942;-75
2024/02/14 07:24:05;;;;;;;;;;;;;;;3.98;100.00;96952.59;5107119;28;19981;-74
2024/02/14 07:26:31;;;;;;;;;;;;;;;4.00;100.00;96932.47;5106238;28;19948;-74
2024/02/14 07:28:56;;;;;;;;;;;;;;;4.05;100.00;96940.56;5106259;28;19944;-77
2024/02/14 07:31:22;;;;;;;;;;;;;;;4.11;100.00;96933.91;5088155;28;20277;-76
2024/02/14 07:33:49;;;;;;;;;;;;;;;4.16;100.00;96929.03;5106428;28;19930;-75
2024/02/14 07:36:15;;;;;;;;;;;;;;;4.22;100.00;96934.38;5106140;28;19943;-68
2024/02/14 07:38:42;;;;;;;;;;;;;;;4.31;100.00;96926.59;5106145;28;19930;-74
2024/02/14 07:41:08;;;;;;;;;;;;;;;4.41;100.00;96932.38;5106309;28;20088;-73
2024/02/14 07:43:43;;;;;;;;;;;;;;;4.52;100.00;96936.41;5088093;28;19936;-73
2024/02/14 07:46:11;;;;;;;;;;;;;;;4.59;100.00;96919.19;5105845;28;19948;-73
2024/02/14 07:48:37;;;;;;;;;;;;;;;4.66;100.00;96935.69;5105854;28;19942;-73
2024/02/14 07:51:06;;;;;;;;;;;;;;;4.73;100.00;96928.06;5106338;28;19932;-73
2024/02/14 07:53:32;;;;;;;;;;;;;;;4.77;100.00;96932.75;5105778;28;20249;-73
2024/02/14 07:55:58;;;;;;;;;;;;;;;4.79;100.00;96937.78;5105725;28;19935;-65
2024/02/14 07:58:24;;;;;;;;;;;;;;;4.82;100.00;96946.03;5104875;28;19962;-68
2024/02/14 08:00:50;;;;;;;;;;;;;;;4.87;100.00;96940.31;5105691;28;19940;-68
2024/02/14 08:03:15;;;;;;;;;;;;;;;4.91;100.00;96944.19;5105638;28;19942;-68
2024/02/14 08:05:42;;;;;;;;;;;;;;;4.95;100.00;96948.09;5106202;28;20055;-68
2024/02/14 08:08:08;;;;;;;;;;;;;;;5.00;100.00;96948.41;5105409;28;19957;-68
2024/02/14 08:10:34;;;;;;;;;;;;;;;5.02;100.00;96946.44;5105980;28;19932;-68
2024/02/14 08:13:00;;;;;;;;;;;;;;;5.06;100.00;96949.50;5105364;28;19980;-75
2024/02/14 08:15:25;;;;;;;;;;;;;;;5.13;100.00;96953.03;5105605;28;19933;-68
2024/02/14 08:17:55;;;;;;;;;;;;;;;5.20;100.00;96961.78;5105286;28;19934;-69
2024/02/14 08:20:21;;;;;;;;;;;;;;;5.28;100.00;96956.53;5105201;28;20111;-68
2024/02/14 08:22:55;;;;;;;;;;;;;;;5.38;100.00;96960.72;5105565;28;19939;-69
2024/02/14 08:25:21;;;;;;;;;;;;;;;5.46;100.00;96966.66;5105635;28;19937;-68
2024/02/14 08:27:47;;;;;;;;;;;;;;;5.56;100.00;96965.63;5105351;28;19942;-68
2024/02/14 08:30:13;;;;;;;;;;;;;;;5.64;100.00;96962.97;5105009;28;19934;-69
2024/02/14 08:32:39;;;;;;;;;;;;;;;5.71;100.00;96961.28;5105109;28;20004;-67
2024/02/14 08:35:05;;;;;;;;;;;;;;;5.82;100.00;96976.50;5105021;28;20151;-73
2024/02/14 08:37:31;;;;;;;;;;;;;;;5.90;100.00;96973.03;5087226;28;20157;-73
2024/02/14 08:39:56;;;;;;;;;;;;;;;5.96;100.00;96964.53;5104900;28;19933;-72
2024/02/14 08:42:22;;;;;;;;;;;;;;;6.03;100.00;96954.25;5105373;28;19932;-72
2024/02/14 08:44:48;;;;;;;;;;;;;;;6.07;100.00;96948.50;5104808;28;19941;-73
2024/02/14 08:47:14;;;;;;;;;;;;;;;6.09;100.00;96962.16;5104718;28;19955;-73
2024/02/14 08:49:41;;;;;;;;;;;;;;;6.12;100.00;96966.19;5104766;28;19933;-73
2024/02/14 08:52:06;;;;;;;;;;;;;;;6.12;100.00;96960.19;5104747;28;20098;-66
2024/02/14 08:54:32;;;;;;;;;;;;;;;6.13;100.00;96969.59;5104700;28;19943;-66
2024/02/14 08:56:59;;;;;;;;;;;;;;;6.14;100.00;96966.03;5104414;28;19963;-65
2024/02/14 08:59:25;;;;;;;;;;;;;;;6.12;100.00;96971.41;5104517;28;19940;-66
2024/02/14 09:01:51;;;;;;;;;;;;;;;6.13;100.00;96973.00;5104509;28;19986;-66
2024/02/14 09:04:17;;;;;;;;;;;;;;;6.14;100.00;96966.03;5105303;28;19977;-65
2024/02/14 09:06:42;;;;;;;;;;;;;;;6.17;100.00;96976.06;5104396;28;19992;-66
2024/02/14 09:09:10;;;;;;;;;;;;;;;6.22;100.00;96984.97;5104602;28;20124;-77
2024/02/14 09:11:36;;;;;;;;;;;;;;;6.28;100.00;96978.28;5104954;28;19932;-74
2024/02/14 09:14:06;;;;;;;;;;;;;;;6.34;100.00;96982.78;5105170;28;19938;-74
2024/02/14 09:16:33;;;;;;;;;;;;;;;6.40;100.00;96989.03;5104915;28;19932;-74
2024/02/14 09:18:59;;;;;;;;;;;;;;;6.46;100.00;96983.94;5105088;28;19941;-74
2024/02/14 09:21:25;;;;;;;;;;;;;;;6.48;100.00;96983.75;5105077;28;19939;-74
2024/02/14 09:23:51;;;;;;;;;;;;;;;6.54;100.00;96982.25;5104209;28;19967;-74
2024/02/14 09:26:17;;;;;;;;;;;;;;;6.65;100.00;96977.38;5104681;28;19956;-69
2024/02/14 09:28:43;;;;;;;;;;;;;;;6.82;100.00;96972.78;5104202;28;20121;-68
2024/02/14 09:31:12;;;;;;;;;;;;;;;7.02;100.00;96969.63;5104272;28;20078;-75
2024/02/14 09:33:38;;;;;;;;;;;;;;;7.20;100.00;96969.22;5103714;28;20122;-74
2024/02/14 09:36:04;;;;;;;;;;;;;;;7.47;100.00;96984.19;5103357;28;19943;-75
2024/02/14 09:38:30;;;;;;;;;;;;;;;7.59;100.00;96949.78;5104665;28;19943;-74
2024/02/14 09:41:05;;;;;;;;;;;;;;;7.61;100.00;96953.81;5104884;28;20131;-75
2024/02/14 09:43:34;;;;;;;;;;;;;;;7.62;100.00;96954.63;5104626;28;20014;-74
2024/02/14 09:46:02;;;;;;;;;;;;;;;7.67;100.00;96966.13;5103894;28;20144;-73
2024/02/14 09:48:29;;;;;;;;;;;;;;;7.71;100.00;96971.78;5104020;28;19942;-73
2024/02/14 09:50:56;;;;;;;;;;;;;;;7.77;100.00;96965.00;5103974;28;20224;-73
2024/02/14 09:53:22;;;;;;;;;;;;;;;7.84;100.00;96956.25;5086576;28;19955;-73
2024/02/14 09:55:48;;;;;;;;;;;;;;;7.92;100.00;96966.56;5104740;28;19940;-73
2024/02/14 09:58:14;;;;;;;;;;;;;;;8.07;100.00;96957.84;5103932;28;19962;-73
2024/02/14 10:00:41;;;;;;;;;;;;;;;8.31;100.00;96961.81;5104698;28;20271;-74
2024/02/14 10:03:07;;;;;;;;;;;;;;;8.57;100.00;96961.22;5103819;28;19937;-68
2024/02/14 10:05:33;;;;;;;;;;;;;;;8.87;100.00;96948.72;5103791;28;19947;-73
2024/02/14 10:08:01;;;;;;;;;;;;;;;9.15;100.00;96942.56;5103772;28;20005;-77
2024/02/14 10:10:27;;;;;;;;;;;;;;;9.45;100.00;96957.94;5104364;28;19940;-76
2024/02/14 10:12:56;;;;;;;;;;;;;;;9.88;100.00;96940.09;5104287;28;19966;-77
2024/02/14 10:15:22;;;;;;;;;;;;;;;10.20;100.00;96926.38;5103716;28;20106;-77
2024/02/14 10:17:48;;;;;;;;;;;;;;;10.54;100.00;96915.69;5104530;28;19936;-78
2024/02/14 10:20:17;;;;;;;;;;;;;;;10.90;100.00;96888.09;5104234;28;19938;-77
2024/02/14 10:22:44;;;;;;;;;;;;;;;11.20;100.00;96871.00;5103692;28;19938;-67
2024/02/14 10:25:10;;;;;;;;;;;;;;;11.53;100.00;96853.19;5103658;28;19931;-73
2024/02/14 10:27:37;;;;;;;;;;;;;;;11.71;100.00;96838.50;5103554;28;19950;-73
2024/02/14 10:30:09;;;;;;;;;;;;;;;11.67;100.00;96842.56;5103640;28;19938;-73
2024/02/14 10:32:36;;;;;;;;;;;;;;;11.62;100.00;96851.09;5104125;28;19944;-73
2024/02/14 10:35:11;;;;;;;;;;;;;;;11.52;100.00;96837.66;5103619;28;19941;-73
2024/02/14 10:37:37;;;;;;;;;;;;;;;11.58;100.00;96858.59;5102711;28;19940;-73
2024/02/14 10:40:04;;;;;;;;;;;;;;;11.54;100.00;96864.50;5104324;28;19931;-73
2024/02/14 10:42:33;;;;;;;;;;;;;;;11.57;100.00;96849.13;5085905;28;19936;-73
2024/02/14 10:45:00;;;;;;;;;;;;;;;11.59;100.00;96841.03;5103469;28;19937;-73
2024/02/14 10:47:35;;;;;;;;;;;;;;;11.46;100.00;96854.25;5089901;28;20150;-73
2024/02/14 10:50:03;;;;;;;;;;;;;;;11.48;100.00;96857.47;5107335;28;19939;-73
2024/02/14 10:52:31;;;;;;;;;;;;;;;11.65;100.00;96852.50;5107028;28;19937;-73
2024/02/14 10:54:58;;;;;;;;;;;;;;;11.72;100.00;96864.56;5106953;28;20242;-73
2024/02/14 10:57:24;;;;;;;;;;;;;;;11.68;100.00;96863.38;5088593;28;19969;-73
2024/02/14 10:59:51;;;;;;;;;;;;;;;11.65;100.00;96870.88;5106834;28;20218;-74
2024/02/14 11:02:17;;;;;;;;;;;;;;;11.58;100.00;96871.75;5106829;28;19935;-73
2024/02/14 11:04:43;;;;;;;;;;;;;;;11.69;100.00;96880.75;5107032;28;19936;-74
2024/02/14 11:07:10;;;;;;;;;;;;;;;11.91;100.00;96885.69;5106702;28;19956;-73
2024/02/14 11:09:36;;;;;;;;;;;;;;;12.01;100.00;96866.78;5107462;28;19962;-73
2024/02/14 11:12:02;;;;;;;;;;;;;;;12.05;100.00;96855.59;5107127;28;19946;-73
2024/02/14 11:14:32;;;;;;;;;;;;;;;12.05;100.00;96860.88;5106601;28;19947;-73
2024/02/14 11:16:59;;;;;;;;;;;;;;;12.02;100.00;96881.53;5107075;28;19938;-74
2024/02/14 11:19:33;;;;;;;;;;;;;;;11.98;100.00;96876.69;5106513;28;19956;-73
2024/02/14 11:22:01;;;;;;;;;;;;;;;11.92;100.00;96876.75;5106458;28;19941;-74
2024/02/14 11:24:29;;;;;;;;;;;;;;;11.91;100.00;96885.69;5106413;28;20228;-74
2024/02/14 11:26:55;;;;;;;;;;;;;;;11.77;100.00;96898.09;5106225;28;19948;-73
2024/02/14 11:29:28;;;;;;;;;;;;;;;11.71;100.00;96912.06;5106310;28;20132;-74
2024/02/14 11:31:58;;;;;;;;;;;;;;;11.67;100.00;96910.88;5106282;28;19944;-74
2024/02/14 11:34:24;;;;;;;;;;;;;;;11.65;100.00;96920.81;5088181;28;19938;-66
2024/02/14 11:36:51;;;;;;;;;;;;;;;11.69;100.00;96922.00;5106139;28;19929;-77
2024/02/14 11:39:17;;;;;;;;;;;;;;;11.77;100.00;96912.03;5106124;28;19935;-77
2024/02/14 11:41:43;;;;;;;;;;;;;;;11.88;100.00;96883.44;5106101;28;19927;-78
2024/02/14 11:44:09;;;;;;;;;;;;;;;12.08;100.00;96896.47;5106058;28;19933;-77
2024/02/14 11:46:35;;;;;;;;;;;;;;;12.27;100.00;96895.47;5105911;28;19954;-77
2024/02/14 11:49:03;;;;;;;;;;;;;;;12.46;100.00;96877.88;5087937;28;19936;-77
2024/02/14 11:51:32;;;;;;;;;;;;;;;12.68;100.00;96865.09;5105913;28;19947;-77
2024/02/14 11:54:06;;;;;;;;;;;;;;;12.91;100.00;96877.53;5105359;28;20247;-73
2024/02/14 11:56:38;;;;;;;;;;;;;;;13.05;100.00;96846.59;5105471;28;20215;-76
2024/02/14 11:59:05;;;;;;;;;;;;;;;13.11;100.00;96852.78;5105363;28;19945;-77
2024/02/14 12:01:31;;;;;;;;;;;;;;;12.97;99.42;96839.00;5105924;28;19943;-77
2024/02/14 12:03:58;;;;;;;;;;;;;;;12.75;100.00;96860.53;5106394;28;19942;-77
2024/02/14 12:06:24;;;;;;;;;;;;;;;12.57;100.00;96863.97;5105558;28;19957;-77
2024/02/14 12:08:50;;;;;;;;;;;;;;;12.46;100.00;96877.06;5105487;28;19972;-77
2024/02/14 12:11:17;;;;;;;;;;;;;;;12.35;100.00;96883.88;5105546;28;19936;-67
2024/02/14 12:13:46;;;;;;;;;;;;;;;12.28;100.00;96872.59;5105677;28;19947;-67
2024/02/14 12:16:12;;;;;;;;;;;;;;;12.25;100.00;96894.06;5105345;28;19947;-67
2024/02/14 12:18:39;;;;;;;;;;;;;;;12.20;100.00;96897.34;5105820;28;19933;-67
2024/02/14 12:21:09;;;;;;;;;;;;;;;12.18;100.00;96897.56;5105850;28;19937;-66
2024/02/14 12:23:35;;;;;;;;;;;;;;;12.18;100.00;96904.66;5105085;28;19934;-67
2024/02/14 12:26:02;;;;;;;;;;;;;;;12.14;100.00;96893.75;5105069;28;19940;-66
2024/02/14 12:28:30;;;;;;;;;;;;;;;12.17;100.00;96895.16;5105936;28;20230;-66
2024/02/14 12:30:56;;;;;;;;;;;;;;;12.14;100.00;96896.38;5105114;28;19934;-75
2024/02/14 12:33:23;;;;;;;;;;;;;;;12.09;100.00;96885.69;5105030;28;19958;-75
2024/02/14 12:35:50;;;;;;;;;;;;;;;12.05;100.00;96905.56;5104949;28;19939;-75
2024/02/14 12:38:17;;;;;;;;;;;;;;;12.06;100.00;96887.97;5105499;28;20111;-75
2024/02/14 12:40:46;;;;;;;;;;;;;;;12.08;100.00;96880.69;5104861;28;19951;-75
2024/02/14 12:43:13;;;;;;;;;;;;;;;12.13;100.00;96884.25;5104843;28;20249;-74
2024/02/14 12:45:39;;;;;;;;;;;;;;;12.20;100.00;96889.47;5105435;28;20149;-74
2024/02/14 12:48:05;;;;;;;;;;;;;;;12.23;100.00;96870.63;5104764;28;19956;-69